Aviation Digital Data Service (ADDS)

Output produced by TAFs form (1937 UTC 16 January 2018)
found at http://www.aviationweather.gov/adds/tafs/
 
KHOU 161741Z 1618/1718 36019G29KT 4SM -FZRAPL BR BKN011 OVC040 
     FM162100 35019G29KT 4SM -SNPL OVC015 
     FM162300 36017G27KT P6SM -SN BKN025 OVC050 
     FM170300 36017KT P6SM OVC050 
     FM170900 36009KT P6SM SCT250
       
KLBX 161741Z 1618/1718 01019G26KT 6SM -FZRASN BKN012 OVC018 
     FM162000 36015G25KT 6SM -SNPL BKN014 OVC025 
     FM162300 36014G24KT 6SM -SN BR BKN020 OVC035 
     FM170200 36010G20KT P6SM BKN040 
     FM170800 36008KT P6SM SCT250